createdAt,value
2023-05-22T00:03:30.897Z,81.94
2023-05-22T00:13:34.229Z,81.76
2023-05-22T00:23:37.446Z,81.16
2023-05-22T00:33:40.472Z,81.30
2023-05-22T00:43:45.805Z,81.10
2023-05-22T00:53:50.489Z,81.12
2023-05-22T01:03:54.164Z,81.24
2023-05-22T01:14:16.310Z,81.69
2023-05-22T01:24:19.260Z,81.97
2023-05-22T01:34:23.315Z,82.13
2023-05-22T01:44:26.551Z,82.44
2023-05-22T01:54:50.502Z,82.31
2023-05-22T02:05:00.936Z,82.17
2023-05-22T02:15:06.332Z,81.99
2023-05-22T02:25:14.423Z,81.76
2023-05-22T02:35:18.065Z,82.01
2023-05-22T02:45:22.129Z,81.86
2023-05-22T02:55:25.367Z,81.68
2023-05-22T03:05:28.531Z,81.09
2023-05-22T03:15:31.612Z,81.11
2023-05-22T03:25:41.834Z,80.35
2023-05-22T03:35:45.331Z,81.18
2023-05-22T03:45:48.486Z,82.00
2023-05-22T03:55:52.755Z,82.81
2023-05-22T04:05:57.091Z,82.97
2023-05-22T04:16:02.311Z,83.64
2023-05-22T04:26:09.248Z,83.44
2023-05-22T04:36:13.270Z,83.46
2023-05-22T04:46:16.711Z,82.79
2023-05-22T04:56:31.968Z,82.26
2023-05-22T05:06:40.350Z,81.72
2023-05-22T05:16:43.818Z,82.67
2023-05-22T05:26:47.566Z,82.12
2023-05-22T05:36:53.558Z,76.24
2023-05-22T05:46:58.772Z,68.54
2023-05-22T05:57:03.108Z,66.33
2023-05-22T06:07:06.802Z,67.45
2023-05-22T06:17:17.556Z,68.07
2023-05-22T06:27:27.828Z,63.88
2023-05-22T06:37:35.817Z,55.41
2023-05-22T06:47:39.631Z,47.02
2023-05-22T06:57:43.532Z,44.15
2023-05-22T07:07:47.784Z,40.99
2023-05-22T07:17:51.917Z,39.68
2023-05-22T07:27:55.960Z,40.63
2023-05-22T07:37:59.836Z,38.70
2023-05-22T07:48:04.663Z,39.63
2023-05-22T07:58:11.602Z,38.73
2023-05-22T08:08:17.187Z,37.72
2023-05-22T08:18:20.989Z,38.75
2023-05-22T08:28:24.504Z,36.54
2023-05-22T08:38:27.756Z,38.15
2023-05-22T08:48:32.538Z,37.31
2023-05-22T08:58:37.116Z,38.04
2023-05-22T09:08:42.953Z,39.40
2023-05-22T09:18:46.633Z,37.13
2023-05-22T09:28:50.036Z,37.86
2023-05-22T09:38:54.235Z,37.99
2023-05-22T09:48:57.275Z,37.81
2023-05-22T09:59:01.117Z,39.63
2023-05-22T10:09:07.268Z,39.85
2023-05-22T10:19:12.256Z,39.94
2023-05-22T10:29:22.351Z,40.27
2023-05-22T10:39:44.553Z,39.66
2023-05-22T10:49:49.843Z,39.63
2023-05-22T11:00:10.251Z,39.32
2023-05-22T11:10:13.460Z,39.57
2023-05-22T11:20:25.867Z,39.59
2023-05-22T11:30:33.432Z,40.46
2023-05-22T11:40:37.024Z,41.65
2023-05-22T11:50:52.189Z,41.32
2023-05-22T12:01:03.507Z,41.37
2023-05-22T12:11:07.727Z,41.47
2023-05-22T12:21:11.477Z,41.34
2023-05-22T12:31:24.450Z,40.75
2023-05-22T12:41:27.637Z,40.78
2023-05-22T12:51:32.411Z,40.53
2023-05-22T13:01:35.551Z,40.54
2023-05-22T13:11:39.925Z,39.88
2023-05-22T13:21:43.770Z,40.15
2023-05-22T13:31:46.788Z,39.46
2023-05-22T13:41:53.032Z,39.33
2023-05-22T13:51:56.090Z,39.42
2023-05-22T14:01:59.344Z,39.70
2023-05-22T14:12:02.890Z,39.95
2023-05-22T14:22:06.099Z,40.43
2023-05-22T14:32:09.603Z,40.36
2023-05-22T14:42:12.774Z,40.17
2023-05-22T14:52:15.850Z,40.48
2023-05-22T15:02:19.815Z,40.38
2023-05-22T15:12:23.380Z,40.32
2023-05-22T15:22:26.417Z,40.09
2023-05-22T15:32:30.883Z,41.28
2023-05-22T15:42:34.156Z,41.67
2023-05-22T15:52:38.554Z,41.37
2023-05-22T16:02:41.653Z,41.79
2023-05-22T16:12:45.005Z,42.09
2023-05-22T16:22:49.115Z,42.08
2023-05-22T16:32:52.424Z,42.63
2023-05-22T16:42:56.103Z,44.08
2023-05-22T16:52:59.373Z,44.97
2023-05-22T17:03:03.360Z,45.67
2023-05-22T17:13:06.786Z,46.96
2023-05-22T17:23:10.057Z,47.83
2023-05-22T17:33:14.177Z,49.51
2023-05-22T17:43:19.277Z,51.19
2023-05-22T17:53:22.641Z,52.61
2023-05-22T18:03:26.514Z,54.85
2023-05-22T18:13:29.835Z,57.68
2023-05-22T18:23:33.111Z,60.01
2023-05-22T18:33:36.323Z,61.98
2023-05-22T18:43:39.583Z,63.61
2023-05-22T18:53:43.204Z,65.41
2023-05-22T19:03:46.440Z,67.00
2023-05-22T19:13:49.586Z,68.29
2023-05-22T19:23:52.675Z,69.16
2023-05-22T19:33:56.243Z,70.23
2023-05-22T19:43:59.581Z,71.38
2023-05-22T19:54:03.029Z,72.17
2023-05-22T20:04:06.263Z,73.11
2023-05-22T20:14:09.959Z,73.92
2023-05-22T20:24:17.637Z,74.69
2023-05-22T20:34:21.051Z,75.42
2023-05-22T20:44:24.939Z,76.11
2023-05-22T20:54:34.119Z,76.38
2023-05-22T21:04:37.242Z,76.69
2023-05-22T21:14:40.507Z,77.12
2023-05-22T21:24:43.838Z,77.29
2023-05-22T21:34:47.113Z,77.55
2023-05-22T21:44:50.444Z,77.82
2023-05-22T21:54:56.669Z,77.85
2023-05-22T22:04:59.762Z,78.29
2023-05-22T22:15:03.355Z,78.99
2023-05-22T22:25:07.357Z,79.44
2023-05-22T22:35:11.357Z,79.62
2023-05-22T22:45:15.069Z,79.79
2023-05-22T22:55:18.446Z,80.08
2023-05-22T23:05:23.138Z,80.76
2023-05-22T23:15:26.281Z,81.19
2023-05-22T23:25:29.719Z,81.44
2023-05-22T23:35:32.845Z,81.44
2023-05-22T23:45:36.409Z,81.39
2023-05-22T23:55:41.717Z,81.21
